Time,TemperatureF,DewpointF,PressureIn,WindDirection,WindDirectionDegrees,WindSpeedMPH,WindSpeedGustMPH,Humidity,HourlyPrecipIn,Conditions,Clouds,dailyrainin,SoftwareType,DateUTC
2013-04-03 00:00:00,37.0,25.6,30.25,West,266,2.0,2.0,63,0.00,,,0.00,Wunderground v.1.15,2013-04-03 05:00:00,
2013-04-03 00:10:00,36.3,25.7,30.25,SW,221,1.0,13.0,65,0.00,,,0.00,Wunderground v.1.15,2013-04-03 05:10:00,
2013-04-03 00:20:00,35.5,25.6,30.25,SW,219,4.0,13.0,67,0.00,,,0.00,Wunderground v.1.15,2013-04-03 05:20:00,
2013-04-03 00:30:00,35.1,25.2,30.25,SSW,212,4.0,4.0,67,0.00,,,0.00,Wunderground v.1.15,2013-04-03 05:30:00,
2013-04-03 00:40:00,34.3,25.2,30.25,SW,229,1.0,1.0,69,0.00,,,0.00,Wunderground v.1.15,2013-04-03 05:40:00,
2013-04-03 00:50:00,34.3,25.5,30.25,SW,218,0.0,13.0,70,0.00,,,0.00,Wunderground v.1.15,2013-04-03 05:50:00,
2013-04-03 01:00:00,33.7,25.6,30.26,SW,229,1.0,13.0,72,0.00,,,0.00,Wunderground v.1.15,2013-04-03 06:00:00,
2013-04-03 01:10:00,33.4,26.0,30.26,SSW,209,2.0,13.0,74,0.00,,,0.00,Wunderground v.1.15,2013-04-03 06:10:00,
2013-04-03 01:20:00,33.1,25.7,30.26,SW,224,2.0,13.0,74,0.00,,,0.00,Wunderground v.1.15,2013-04-03 06:20:00,
2013-04-03 01:30:00,32.8,26.1,30.26,SW,215,2.0,13.0,76,0.00,,,0.00,Wunderground v.1.15,2013-04-03 06:30:00,
2013-04-03 01:40:00,33.6,26.5,30.26,SSW,212,4.0,13.0,75,0.00,,,0.00,Wunderground v.1.15,2013-04-03 06:40:00,
2013-04-03 01:50:00,33.7,26.6,30.26,SW,214,5.0,5.0,75,0.00,,,0.00,Wunderground v.1.15,2013-04-03 06:50:00,
2013-04-03 02:00:00,33.4,26.3,30.26,SSW,210,4.0,13.0,75,0.00,,,0.00,Wunderground v.1.15,2013-04-03 07:00:00,
2013-04-03 02:10:00,33.1,26.0,30.26,SW,217,4.0,13.0,75,0.00,,,0.00,Wunderground v.1.15,2013-04-03 07:10:00,
2013-04-03 02:20:00,32.4,26.0,30.26,SW,215,3.0,13.0,77,0.00,,,0.00,Wunderground v.1.15,2013-04-03 07:20:00,
2013-04-03 02:30:00,32.4,26.0,30.26,SW,220,4.0,4.0,77,0.00,,,0.00,Wunderground v.1.15,2013-04-03 07:30:00,
2013-04-03 02:40:00,32.0,25.9,30.26,SSW,212,3.0,3.0,78,0.00,,,0.00,Wunderground v.1.15,2013-04-03 07:40:00,
2013-04-03 02:50:00,31.9,25.5,30.26,SSW,207,4.0,4.0,77,0.00,,,0.00,Wunderground v.1.15,2013-04-03 07:50:00,
2013-04-03 03:01:00,31.6,26.1,30.26,SW,222,3.0,5.0,80,0.00,,,0.00,Wunderground v.1.15,2013-04-03 08:01:00,
2013-04-03 03:10:00,31.7,26.2,30.26,SW,224,5.0,5.0,80,0.00,,,0.00,Wunderground v.1.15,2013-04-03 08:10:00,
2013-04-03 03:20:00,31.5,25.7,30.26,WSW,238,3.0,3.0,79,0.00,,,0.00,Wunderground v.1.15,2013-04-03 08:20:00,
2013-04-03 03:30:00,31.2,26.3,30.26,SW,229,1.0,2.0,82,0.00,,,0.00,Wunderground v.1.15,2013-04-03 08:30:00,
2013-04-03 03:40:00,31.6,26.7,30.25,SW,217,1.0,1.0,82,0.00,,,0.00,Wunderground v.1.15,2013-04-03 08:40:00,
2013-04-03 03:50:00,32.7,27.8,30.25,West,263,1.0,5.0,82,0.00,,,0.00,Wunderground v.1.15,2013-04-03 08:50:00,
2013-04-03 04:00:00,32.9,27.4,30.25,SW,232,2.0,2.0,80,0.00,,,0.00,Wunderground v.1.15,2013-04-03 09:00:00,
2013-04-03 04:10:00,32.5,27.3,30.25,WSW,252,0.0,5.0,81,0.00,,,0.00,Wunderground v.1.15,2013-04-03 09:10:00,
2013-04-03 04:20:00,33.4,27.9,30.24,West,260,3.0,5.0,80,0.00,,,0.00,Wunderground v.1.15,2013-04-03 09:20:00,
2013-04-03 04:30:00,33.7,28.2,30.25,WSW,250,4.0,5.0,80,0.00,,,0.00,Wunderground v.1.15,2013-04-03 09:30:00,
2013-04-03 04:40:00,33.7,28.2,30.25,WSW,242,2.0,2.0,80,0.00,,,0.00,Wunderground v.1.15,2013-04-03 09:40:00,
2013-04-03 04:50:00,33.6,28.4,30.25,SW,227,1.0,5.0,81,0.00,,,0.00,Wunderground v.1.15,2013-04-03 09:50:00,
2013-04-03 05:00:00,33.6,28.4,30.25,West,262,2.0,2.0,81,0.00,,,0.00,Wunderground v.1.15,2013-04-03 10:00:00,
2013-04-03 05:10:00,33.2,28.0,30.25,SW,236,1.0,5.0,81,0.00,,,0.00,Wunderground v.1.15,2013-04-03 10:10:00,
2013-04-03 05:20:00,32.8,27.9,30.26,West,266,2.0,2.0,82,0.00,,,0.00,Wunderground v.1.15,2013-04-03 10:20:00,
2013-04-03 05:30:00,32.7,28.1,30.26,WSW,258,2.0,5.0,83,0.00,,,0.00,Wunderground v.1.15,2013-04-03 10:30:00,
2013-04-03 05:40:00,32.4,27.8,30.25,WSW,256,3.0,3.0,83,0.00,,,0.00,Wunderground v.1.15,2013-04-03 10:40:00,
2013-04-03 05:50:00,32.1,27.8,30.26,WSW,250,3.0,3.0,84,0.00,,,0.00,Wunderground v.1.15,2013-04-03 10:50:00,
2013-04-03 06:00:00,32.0,28.0,30.26,West,267,2.0,5.0,85,0.00,,,0.00,Wunderground v.1.15,2013-04-03 11:00:00,
2013-04-03 06:10:00,32.0,28.0,30.26,West,274,2.0,2.0,85,0.00,,,0.00,Wunderground v.1.15,2013-04-03 11:10:00,
2013-04-03 06:20:00,31.9,27.9,30.26,West,262,2.0,5.0,85,0.00,,,0.00,Wunderground v.1.15,2013-04-03 11:20:00,
2013-04-03 06:30:00,31.8,27.8,30.26,WSW,240,2.0,2.0,85,0.00,,,0.00,Wunderground v.1.15,2013-04-03 11:30:00,
2013-04-03 06:40:00,31.7,27.7,30.26,SW,219,1.0,5.0,85,0.00,,,0.00,Wunderground v.1.15,2013-04-03 11:40:00,
2013-04-03 06:50:00,31.9,27.9,30.27,WSW,250,1.0,5.0,85,0.00,,,0.00,Wunderground v.1.15,2013-04-03 11:50:00,
2013-04-03 07:00:00,32.1,27.8,30.27,WSW,250,2.0,2.0,84,0.00,,,0.00,Wunderground v.1.15,2013-04-03 12:00:00,
2013-04-03 07:10:00,31.9,27.6,30.27,SSW,209,1.0,5.0,84,0.00,,,0.00,Wunderground v.1.15,2013-04-03 12:10:00,
2013-04-03 07:20:00,32.1,27.8,30.27,SSW,203,1.0,5.0,84,0.00,,,0.00,Wunderground v.1.15,2013-04-03 12:20:00,
2013-04-03 07:30:00,32.5,27.9,30.27,WSW,240,3.0,5.0,83,0.00,,,0.00,Wunderground v.1.15,2013-04-03 12:30:00,
2013-04-03 07:40:00,32.7,28.1,30.27,WSW,252,3.0,3.0,83,0.00,,,0.00,Wunderground v.1.15,2013-04-03 12:40:00,
2013-04-03 07:50:00,32.9,28.0,30.27,West,264,3.0,3.0,82,0.00,,,0.00,Wunderground v.1.15,2013-04-03 12:50:00,
2013-04-03 08:00:00,33.1,28.5,30.27,West,266,2.0,5.0,83,0.00,,,0.00,Wunderground v.1.15,2013-04-03 13:00:00,
2013-04-03 08:10:00,33.5,28.6,30.27,WSW,242,3.0,3.0,82,0.00,,,0.00,Wunderground v.1.15,2013-04-03 13:10:00,
2013-04-03 08:20:00,34.2,29.3,30.28,SW,236,3.0,3.0,82,0.00,,,0.00,Wunderground v.1.15,2013-04-03 13:20:00,
2013-04-03 08:30:00,34.8,29.6,30.27,West,260,2.0,2.0,81,0.00,,,0.00,Wunderground v.1.15,2013-04-03 13:30:00,
2013-04-03 08:40:00,35.5,29.9,30.27,WSW,244,1.0,1.0,80,0.00,,,0.00,Wunderground v.1.15,2013-04-03 13:40:00,
2013-04-03 08:50:00,36.3,30.1,30.28,SW,225,1.0,5.0,78,0.00,,,0.00,Wunderground v.1.15,2013-04-03 13:50:00,
2013-04-03 09:00:00,37.0,30.1,30.28,WSW,255,2.0,5.0,76,0.00,,,0.00,Wunderground v.1.15,2013-04-03 14:00:00,
2013-04-03 09:10:00,37.8,30.3,30.28,SW,217,2.0,2.0,74,0.00,,,0.00,Wunderground v.1.15,2013-04-03 14:10:00,
2013-04-03 09:20:00,38.6,30.4,30.28,SW,235,3.0,3.0,72,0.00,,,0.00,Wunderground v.1.15,2013-04-03 14:20:00,
2013-04-03 09:30:00,39.2,30.2,30.27,SW,217,4.0,5.0,70,0.00,,,0.00,Wunderground v.1.15,2013-04-03 14:30:00,
2013-04-03 09:40:00,40.0,29.6,30.27,SSW,203,6.0,8.0,66,0.00,,,0.00,Wunderground v.1.15,2013-04-03 14:40:00,
2013-04-03 09:50:00,40.7,29.1,30.27,SW,214,8.0,11.0,63,0.00,,,0.00,Wunderground v.1.15,2013-04-03 14:50:00,
2013-04-03 10:00:00,41.5,29.0,30.27,SSE,168,8.0,13.0,61,0.00,,,0.00,Wunderground v.1.15,2013-04-03 15:00:00,
2013-04-03 10:10:00,42.0,28.7,30.27,SSW,206,10.0,10.0,59,0.00,,,0.00,Wunderground v.1.15,2013-04-03 15:10:00,
2013-04-03 10:20:00,42.3,29.0,30.27,SSW,205,9.0,9.0,59,0.00,,,0.00,Wunderground v.1.15,2013-04-03 15:20:00,
2013-04-03 10:30:00,42.9,28.7,30.27,SW,217,10.0,10.0,57,0.00,,,0.00,Wunderground v.1.15,2013-04-03 15:30:00,
2013-04-03 10:40:00,43.4,29.2,30.26,SSW,209,11.0,11.0,57,0.00,,,0.00,Wunderground v.1.15,2013-04-03 15:40:00,
2013-04-03 10:50:00,45.1,25.0,30.26,SSW,211,12.0,14.0,45,0.00,,,0.00,Wunderground v.1.15,2013-04-03 15:50:00,
2013-04-03 11:00:00,45.6,22.6,30.26,SSW,205,17.0,19.0,40,0.00,,,0.00,Wunderground v.1.15,2013-04-03 16:00:00,
2013-04-03 11:10:00,46.2,22.6,30.26,SSW,194,16.0,20.0,39,0.00,,,0.00,Wunderground v.1.15,2013-04-03 16:10:00,
2013-04-03 11:20:00,46.7,22.4,30.26,SSW,192,17.0,18.0,38,0.00,,,0.00,Wunderground v.1.15,2013-04-03 16:20:00,
2013-04-03 11:30:00,47.7,23.9,30.26,SSW,199,16.0,17.0,39,0.00,,,0.00,Wunderground v.1.15,2013-04-03 16:30:00,
2013-04-03 11:40:00,47.5,23.1,30.25,SSW,212,17.0,19.0,38,0.00,,,0.00,Wunderground v.1.15,2013-04-03 16:40:00,
2013-04-03 11:50:00,48.2,24.4,30.25,SSW,200,17.0,17.0,39,0.00,,,0.00,Wunderground v.1.15,2013-04-03 16:50:00,
2013-04-03 12:00:00,48.6,25.3,30.25,SSW,210,18.0,24.0,40,0.00,,,0.00,Wunderground v.1.15,2013-04-03 17:00:00,
2013-04-03 12:10:00,49.5,24.9,30.25,SSW,213,19.0,19.0,38,0.00,,,0.00,Wunderground v.1.15,2013-04-03 17:10:00,
2013-04-03 12:20:00,49.8,23.9,30.25,SSW,200,17.0,20.0,36,0.00,,,0.00,Wunderground v.1.15,2013-04-03 17:20:00,
2013-04-03 12:31:00,49.9,24.0,30.24,SSW,201,17.0,23.0,36,0.00,,,0.00,Wunderground v.1.15,2013-04-03 17:31:00,
2013-04-03 12:40:00,49.8,23.2,30.24,SSW,196,20.0,20.0,35,0.00,,,0.00,Wunderground v.1.15,2013-04-03 17:40:00,
2013-04-03 12:50:00,49.9,24.0,30.24,SSW,197,19.0,19.0,36,0.00,,,0.00,Wunderground v.1.15,2013-04-03 17:50:00,
2013-04-03 13:00:00,50.0,23.4,30.24,SSW,192,18.0,19.0,35,0.00,,,0.00,Wunderground v.1.15,2013-04-03 18:00:00,
2013-04-03 13:10:00,50.1,24.8,30.24,SSW,192,20.0,20.0,37,0.00,,,0.00,Wunderground v.1.15,2013-04-03 18:10:00,
2013-04-03 13:20:00,50.7,25.3,30.23,SSE,154,18.0,18.0,37,0.00,,,0.00,Wunderground v.1.15,2013-04-03 18:20:00,
2013-04-03 13:30:00,51.2,24.5,30.23,SSW,195,18.0,18.0,35,0.00,,,0.00,Wunderground v.1.15,2013-04-03 18:30:00,
2013-04-03 13:40:00,51.0,24.3,30.23,SSW,196,19.0,23.0,35,0.00,,,0.00,Wunderground v.1.15,2013-04-03 18:40:00,
2013-04-03 14:00:00,51.0,24.3,30.22,SSW,198,18.0,20.0,35,0.00,,,0.00,Wunderground v.1.15,2013-04-03 19:00:00,
2013-04-03 14:10:00,51.6,24.8,30.22,SSW,201,18.0,18.0,35,0.00,,,0.00,Wunderground v.1.15,2013-04-03 19:10:00,
2013-04-03 14:20:00,52.2,24.6,30.22,SSE,155,17.0,17.0,34,0.00,,,0.00,Wunderground v.1.15,2013-04-03 19:20:00,
2013-04-03 14:30:00,52.2,24.6,30.22,SSW,200,18.0,18.0,34,0.00,,,0.00,Wunderground v.1.15,2013-04-03 19:30:00,
2013-04-03 14:40:00,52.0,24.5,30.22,SSW,195,17.0,17.0,34,0.00,,,0.00,Wunderground v.1.15,2013-04-03 19:40:00,
2013-04-03 14:50:00,52.3,24.0,30.21,SSW,195,17.0,17.0,33,0.00,,,0.00,Wunderground v.1.15,2013-04-03 19:50:00,
2013-04-03 15:00:00,52.6,24.3,30.20,SSW,198,17.0,17.0,33,0.00,,,0.00,Wunderground v.1.15,2013-04-03 20:00:00,
2013-04-03 15:10:00,53.3,24.2,30.20,South,180,18.0,18.0,32,0.00,,,0.00,Wunderground v.1.15,2013-04-03 20:10:00,
2013-04-03 15:20:00,53.9,24.7,30.20,SSW,192,17.0,17.0,32,0.00,,,0.00,Wunderground v.1.15,2013-04-03 20:20:00,
2013-04-03 15:30:00,54.3,24.3,30.20,SSW,207,19.0,19.0,31,0.00,,,0.00,Wunderground v.1.15,2013-04-03 20:30:00,
2013-04-03 15:40:00,53.8,23.8,30.19,SSW,196,19.0,19.0,31,0.00,,,0.00,Wunderground v.1.15,2013-04-03 20:40:00,
2013-04-03 15:50:00,54.3,24.3,30.19,SSW,195,18.0,21.0,31,0.00,,,0.00,Wunderground v.1.15,2013-04-03 20:50:00,
2013-04-03 16:20:00,54.3,24.3,30.18,SSW,192,19.0,19.0,31,0.00,,,0.00,Wunderground v.1.15,2013-04-03 21:20:00,
2013-04-03 16:30:00,54.6,24.5,30.18,South,178,19.0,19.0,31,0.00,,,0.00,Wunderground v.1.15,2013-04-03 21:30:00,
2013-04-03 16:40:00,54.4,24.4,30.18,SSW,205,19.0,19.0,31,0.00,,,0.00,Wunderground v.1.15,2013-04-03 21:40:00,
2013-04-03 16:50:00,54.2,23.4,30.17,SSW,210,17.0,17.0,30,0.00,,,0.00,Wunderground v.1.15,2013-04-03 21:50:00,
2013-04-03 17:00:00,54.3,25.0,30.17,SSW,210,17.0,17.0,32,0.00,,,0.00,Wunderground v.1.15,2013-04-03 22:00:00,
2013-04-03 17:10:00,54.1,24.1,30.17,SSW,204,15.0,18.0,31,0.00,,,0.00,Wunderground v.1.15,2013-04-03 22:10:00,
2013-04-03 17:20:00,54.4,24.4,30.17,South,173,17.0,25.0,31,0.00,,,0.00,Wunderground v.1.15,2013-04-03 22:20:00,
2013-04-03 17:30:00,54.2,23.4,30.16,SSW,200,17.0,19.0,30,0.00,,,0.00,Wunderground v.1.15,2013-04-03 22:30:00,
2013-04-03 17:40:00,53.9,23.9,30.16,South,189,19.0,19.0,31,0.00,,,0.00,Wunderground v.1.15,2013-04-03 22:40:00,
2013-04-03 17:50:00,54.0,24.0,30.15,SSW,208,18.0,21.0,31,0.00,,,0.00,Wunderground v.1.15,2013-04-03 22:50:00,
2013-04-03 18:10:00,53.6,24.4,30.16,South,186,18.0,18.0,32,0.00,,,0.00,Wunderground v.1.15,2013-04-03 23:10:00,
2013-04-03 18:20:00,53.5,24.3,30.16,SW,228,19.0,19.0,32,0.00,,,0.00,Wunderground v.1.15,2013-04-03 23:20:00,
2013-04-03 18:30:00,53.3,24.9,30.15,SSW,212,17.0,19.0,33,0.00,,,0.00,Wunderground v.1.15,2013-04-03 23:30:00,
2013-04-03 18:40:00,53.1,24.7,30.15,SSW,212,18.0,18.0,33,0.00,,,0.00,Wunderground v.1.15,2013-04-03 23:40:00,
2013-04-03 18:50:00,53.0,25.3,30.15,SSW,212,17.0,27.0,34,0.00,,,0.00,Wunderground v.1.15,2013-04-03 23:50:00,
2013-04-03 19:00:00,52.9,26.0,30.16,South,173,17.0,17.0,35,0.00,,,0.00,Wunderground v.1.15,2013-04-04 00:00:00,
2013-04-03 19:10:00,52.6,25.7,30.16,South,188,15.0,27.0,35,0.00,,,0.00,Wunderground v.1.15,2013-04-04 00:10:00,
2013-04-03 19:20:00,51.9,26.4,30.16,SSW,193,16.0,16.0,37,0.00,,,0.00,Wunderground v.1.15,2013-04-04 00:20:00,
2013-04-03 19:30:00,51.1,27.0,30.16,SSW,196,14.0,14.0,39,0.00,,,0.00,Wunderground v.1.15,2013-04-04 00:30:00,
2013-04-03 19:40:00,50.3,27.5,30.16,SSW,202,14.0,14.0,41,0.00,,,0.00,Wunderground v.1.15,2013-04-04 00:40:00,
2013-04-03 19:50:00,49.1,27.5,30.17,SSW,204,16.0,27.0,43,0.00,,,0.00,Wunderground v.1.15,2013-04-04 00:50:00,
2013-04-03 20:00:00,48.0,27.6,30.17,South,191,14.0,27.0,45,0.00,,,0.00,Wunderground v.1.15,2013-04-04 01:00:00,
2013-04-03 20:10:00,46.9,27.7,30.17,SSW,194,16.0,16.0,47,0.00,,,0.00,Wunderground v.1.15,2013-04-04 01:10:00,
2013-04-03 20:20:00,45.9,27.8,30.17,SSW,206,15.0,15.0,49,0.00,,,0.00,Wunderground v.1.15,2013-04-04 01:20:00,
2013-04-03 20:30:00,45.1,28.5,30.18,SSW,205,15.0,27.0,52,0.00,,,0.00,Wunderground v.1.15,2013-04-04 01:30:00,
2013-04-03 20:40:00,44.4,28.8,30.18,SSW,199,14.0,27.0,54,0.00,,,0.00,Wunderground v.1.15,2013-04-04 01:40:00,
2013-04-03 20:50:00,43.6,28.9,30.18,SSW,208,13.0,27.0,56,0.00,,,0.00,Wunderground v.1.15,2013-04-04 01:50:00,
2013-04-03 21:00:00,42.9,28.7,30.19,SSW,202,11.0,11.0,57,0.00,,,0.00,Wunderground v.1.15,2013-04-04 02:00:00,
2013-04-03 21:10:00,42.2,28.5,30.19,South,176,11.0,27.0,58,0.00,,,0.00,Wunderground v.1.15,2013-04-04 02:10:00,
2013-04-03 21:20:00,41.5,28.2,30.19,South,181,10.0,27.0,59,0.00,,,0.00,Wunderground v.1.15,2013-04-04 02:20:00,
2013-04-03 21:30:00,40.9,28.1,30.19,South,169,10.0,27.0,60,0.00,,,0.00,Wunderground v.1.15,2013-04-04 02:30:00,
2013-04-03 21:40:00,40.2,27.8,30.19,South,170,10.0,27.0,61,0.00,,,0.00,Wunderground v.1.15,2013-04-04 02:40:00,
2013-04-03 21:50:00,39.9,27.9,30.20,SSW,197,10.0,27.0,62,0.00,,,0.00,Wunderground v.1.15,2013-04-04 02:50:00,
2013-04-03 22:00:00,39.7,27.7,30.20,South,176,11.0,27.0,62,0.00,,,0.00,Wunderground v.1.15,2013-04-04 03:00:00,
2013-04-03 22:10:00,39.2,27.7,30.20,South,179,12.0,12.0,63,0.00,,,0.00,Wunderground v.1.15,2013-04-04 03:10:00,
2013-04-03 22:30:00,38.5,28.1,30.20,South,171,12.0,27.0,66,0.00,,,0.00,Wunderground v.1.15,2013-04-04 03:30:00,
2013-04-03 22:40:00,38.1,27.7,30.21,South,191,12.0,12.0,66,0.00,,,0.00,Wunderground v.1.15,2013-04-04 03:40:00,
2013-04-03 22:50:00,37.9,28.3,30.20,South,172,13.0,27.0,68,0.00,,,0.00,Wunderground v.1.15,2013-04-04 03:50:00,
2013-04-03 23:00:00,37.7,28.8,30.20,South,181,14.0,27.0,70,0.00,,,0.00,Wunderground v.1.15,2013-04-04 04:00:00,
2013-04-03 23:10:00,37.2,28.7,30.20,SSW,198,13.0,13.0,71,0.00,,,0.00,Wunderground v.1.15,2013-04-04 04:10:00,
2013-04-03 23:20:00,36.8,28.6,30.20,SSW,193,12.0,12.0,72,0.00,,,0.00,Wunderground v.1.15,2013-04-04 04:20:00,
2013-04-03 23:30:00,36.4,28.9,30.20,SSW,200,10.0,27.0,74,0.00,,,0.00,Wunderground v.1.15,2013-04-04 04:30:00,
2013-04-03 23:40:00,35.9,28.7,30.20,SSW,193,10.0,27.0,75,0.00,,,0.00,Wunderground v.1.15,2013-04-04 04:40:00,
2013-04-03 23:50:00,35.6,28.5,30.20,SSW,200,10.0,10.0,75,0.00,,,0.00,Wunderground v.1.15,2013-04-04 04:50:00,